createdAt,value
2023-01-21T08:51:12.935Z,103485.25
2023-01-21T08:53:43.025Z,103471.03
2023-01-21T08:56:29.225Z,103455.75
2023-01-21T08:58:59.550Z,103487.53
2023-01-21T09:01:29.718Z,103491.44
2023-01-21T09:03:58.630Z,103491.47
2023-01-21T09:06:30.102Z,103468.56
2023-01-21T09:09:12.018Z,103413.97
2023-01-21T09:11:50.794Z,103424.13
2023-01-21T09:14:20.122Z,103446.56
2023-01-21T09:16:53.384Z,103370.03
2023-01-21T09:25:13.730Z,103527.19
2023-01-21T09:27:48.280Z,103389.31
2023-01-21T09:30:21.912Z,103529.19
2023-01-21T09:32:51.645Z,103529.56
2023-01-21T09:35:27.137Z,103412.56
2023-01-21T09:38:19.420Z,103547.81
2023-01-21T09:41:16.369Z,103481.28
2023-01-21T09:44:19.839Z,103314.03
2023-01-21T09:47:02.735Z,103540.31
2023-01-21T09:49:39.973Z,103537.03
2023-01-21T09:52:32.611Z,103541.00
2023-01-21T09:55:08.276Z,103408.44
2023-01-21T09:57:54.304Z,103473.06
2023-01-21T10:00:42.490Z,103402.72
2023-01-21T10:03:30.699Z,103460.22
2023-01-21T10:06:16.596Z,103513.94
2023-01-21T10:09:05.323Z,103434.59
2023-01-21T10:11:46.994Z,103560.28
2023-01-21T10:14:42.052Z,103454.91
2023-01-21T10:17:17.226Z,103562.06
2023-01-21T10:19:49.783Z,103551.22
2023-01-21T10:22:22.545Z,103444.88
2023-01-21T10:24:57.568Z,103517.34
2023-01-21T10:27:29.185Z,103560.66
2023-01-21T10:30:07.423Z,103560.06
2023-01-21T10:32:39.104Z,103436.38
2023-01-21T10:35:19.116Z,103546.41
2023-01-21T10:37:53.968Z,103468.81
2023-01-21T10:40:42.964Z,103514.72
2023-01-21T10:43:22.027Z,103513.91
2023-01-21T10:46:25.724Z,103543.16
2023-01-21T10:49:10.307Z,103327.56
2023-01-21T10:51:47.863Z,103445.53
2023-01-21T10:54:28.430Z,103456.38
2023-01-21T10:57:22.494Z,103518.09
2023-01-21T10:59:53.068Z,103332.75
2023-01-21T11:02:39.543Z,103549.78
2023-01-21T11:05:27.264Z,103418.06
2023-01-21T11:08:05.613Z,103547.78
2023-01-21T11:10:37.235Z,103549.78
2023-01-21T11:13:10.056Z,103415.41
2023-01-21T11:15:42.387Z,103542.75
2023-01-21T11:27:37.918Z,103326.34
2023-01-21T11:32:51.885Z,103450.94
2023-01-21T11:35:26.294Z,103472.50
2023-01-21T11:37:55.296Z,103427.91
2023-01-21T11:40:30.423Z,103560.13
2023-01-21T11:43:00.147Z,103561.63
2023-01-21T11:45:32.053Z,103562.53
2023-01-21T11:48:03.369Z,103569.34
2023-01-21T11:50:38.472Z,103534.59
2023-01-21T11:53:24.125Z,103525.53
2023-01-21T11:55:55.140Z,103497.97
2023-01-21T11:58:28.711Z,103404.84
2023-01-21T12:01:04.789Z,103586.28
2023-01-21T12:03:42.018Z,103602.66
2023-01-21T12:06:31.189Z,103467.19
2023-01-21T12:12:33.826Z,103535.69
2023-01-21T12:15:40.161Z,103499.44
2023-01-21T12:18:17.575Z,103597.75
2023-01-21T12:20:56.867Z,103550.25
2023-01-21T12:23:49.748Z,103517.75
2023-01-21T12:26:36.514Z,103539.81
2023-01-21T12:29:19.523Z,103588.53
2023-01-21T12:31:52.616Z,103591.84
2023-01-21T12:34:27.961Z,103584.91
2023-01-21T12:37:04.463Z,103524.88
2023-01-21T12:39:41.070Z,103532.63
2023-01-21T12:42:16.514Z,103613.13
2023-01-21T12:47:58.557Z,103602.41
2023-01-21T12:50:36.558Z,103533.47
2023-01-21T12:53:20.978Z,103516.72
2023-01-21T12:56:17.874Z,103604.41
2023-01-21T12:58:55.354Z,103414.94
2023-01-21T13:01:44.092Z,103604.56
2023-01-21T13:04:26.248Z,103425.59
2023-01-21T13:07:09.339Z,103544.94
2023-01-21T13:09:47.199Z,103544.50
2023-01-21T13:12:34.548Z,103616.50
2023-01-21T13:15:11.989Z,103607.06
2023-01-21T13:17:45.450Z,103448.00
2023-01-21T13:23:18.629Z,103481.88
2023-01-21T13:26:07.910Z,103489.59
2023-01-21T13:28:44.403Z,103506.66
2023-01-21T13:31:20.793Z,103593.09
2023-01-21T13:33:59.029Z,103587.84
2023-01-21T13:36:47.807Z,103411.16
2023-01-21T13:39:26.024Z,103486.31
2023-01-21T13:42:06.431Z,103588.59
2023-01-21T13:45:13.662Z,103571.75
2023-01-21T13:48:15.935Z,103554.91
2023-01-21T13:51:13.051Z,103578.81
2023-01-21T13:54:27.872Z,103584.75
2023-01-21T14:03:57.394Z,103605.19
2023-01-21T14:15:36.419Z,103478.25
2023-01-21T14:18:53.590Z,103601.75
2023-01-21T14:25:10.432Z,103596.72
2023-01-21T14:31:12.733Z,103608.94
2023-01-21T14:34:06.509Z,103605.41
2023-01-21T14:37:49.145Z,103434.38
2023-01-21T14:44:12.279Z,103495.09
2023-01-21T14:50:39.364Z,103513.91
2023-01-21T14:53:41.688Z,103406.63
2023-01-21T15:08:33.078Z,103601.56
2023-01-21T15:13:00.889Z,103399.63
2023-01-21T15:14:51.471Z,103607.19
2023-01-21T15:29:52.481Z,103495.88
2023-01-21T15:32:36.573Z,103562.41
2023-01-21T15:42:09.075Z,103401.22
2023-01-21T15:48:58.213Z,103633.66
2023-01-21T15:51:41.432Z,103637.41
2023-01-21T15:54:21.788Z,103636.34
2023-01-21T15:56:59.683Z,103636.28
2023-01-21T15:59:47.053Z,103637.84
2023-01-21T16:02:50.601Z,103648.97
2023-01-21T16:05:33.142Z,103646.47
2023-01-21T16:08:13.410Z,103635.88
2023-01-21T16:10:55.769Z,103644.81
2023-01-21T16:13:35.926Z,103639.91
2023-01-21T16:16:14.892Z,103639.78
2023-01-21T16:18:54.153Z,103630.13
2023-01-21T16:21:29.060Z,103651.59
2023-01-21T16:24:00.122Z,103649.34
2023-01-21T16:26:32.779Z,103653.13
2023-01-21T16:29:02.163Z,103663.22
2023-01-21T16:31:30.707Z,103664.84
2023-01-21T16:33:58.944Z,103675.94
2023-01-21T16:36:29.851Z,103675.63
2023-01-21T16:38:58.691Z,103688.66
2023-01-21T16:41:28.661Z,103694.25
2023-01-21T16:44:01.483Z,103699.72
2023-01-21T16:46:37.780Z,103699.16
2023-01-21T16:49:13.613Z,103701.47
2023-01-21T16:51:54.590Z,103662.34
2023-01-21T16:54:26.635Z,103700.75
2023-01-21T16:56:57.783Z,103689.41
2023-01-21T16:59:29.212Z,103680.31
2023-01-21T17:01:59.974Z,103701.75
2023-01-21T17:04:30.458Z,103700.63
2023-01-21T17:07:00.905Z,103698.06
2023-01-21T17:09:33.274Z,103675.53
2023-01-21T17:12:07.670Z,103687.19
2023-01-21T17:14:36.947Z,103712.03
2023-01-21T17:17:08.956Z,103705.50
2023-01-21T17:19:40.497Z,103697.63
2023-01-21T17:22:15.790Z,103717.03
2023-01-21T17:24:56.675Z,103709.03
2023-01-21T17:27:26.730Z,103707.19
2023-01-21T17:29:55.071Z,103717.31
2023-01-21T17:32:28.449Z,103716.38
2023-01-21T17:35:12.804Z,103700.31
2023-01-21T17:37:52.897Z,103722.84
2023-01-21T17:40:30.089Z,103739.53
2023-01-21T17:43:00.694Z,103720.06
2023-01-21T17:45:32.509Z,103712.00
2023-01-21T17:48:10.262Z,103731.44
2023-01-21T17:50:47.055Z,103722.69
2023-01-21T17:53:22.980Z,103721.72
2023-01-21T17:56:03.072Z,103729.69
2023-01-21T17:58:48.650Z,103726.94
2023-01-21T18:01:21.406Z,103734.19
2023-01-21T18:03:50.284Z,103727.84
2023-01-21T18:06:21.973Z,103714.50
2023-01-21T18:08:54.342Z,103730.03
2023-01-21T18:11:23.652Z,103733.47
2023-01-21T18:13:52.730Z,103730.03
2023-01-21T18:16:21.378Z,103715.28
2023-01-21T18:18:50.888Z,103738.38
2023-01-21T18:21:21.256Z,103739.59
2023-01-21T18:23:50.214Z,103738.31
2023-01-21T18:26:28.613Z,103734.88
2023-01-21T18:28:57.197Z,103717.66
2023-01-21T18:31:25.792Z,103736.06
2023-01-21T18:33:54.059Z,103734.47
2023-01-21T18:36:22.349Z,103729.38
2023-01-21T18:38:51.099Z,103733.34
2023-01-21T18:41:20.682Z,103746.91
2023-01-21T18:43:49.270Z,103746.47
2023-01-21T18:46:19.949Z,103718.38
2023-01-21T18:48:50.009Z,103737.84
2023-01-21T18:51:19.106Z,103691.25
2023-01-21T18:53:47.525Z,103673.63
2023-01-21T18:56:17.710Z,103748.25
2023-01-21T18:58:48.413Z,103744.16
2023-01-21T19:01:23.451Z,103748.69
2023-01-21T19:03:56.199Z,103745.03
2023-01-21T19:06:26.820Z,103740.53
2023-01-21T19:08:56.276Z,103743.66
2023-01-21T19:11:24.645Z,103740.47
2023-01-21T19:13:54.460Z,103742.47
2023-01-21T19:16:23.450Z,103718.63
2023-01-21T19:18:52.024Z,103738.31
2023-01-21T19:21:23.527Z,103730.81
2023-01-21T19:23:51.879Z,103717.25
2023-01-21T19:26:21.069Z,103732.97
2023-01-21T19:28:49.762Z,103728.75
2023-01-21T19:31:21.232Z,103671.81
2023-01-21T19:33:52.608Z,103725.19
2023-01-21T19:36:22.627Z,103730.16
2023-01-21T19:38:55.821Z,103686.75
2023-01-21T19:41:24.144Z,103661.94
2023-01-21T19:43:52.416Z,103733.13
2023-01-21T19:46:24.106Z,103737.66
2023-01-21T19:48:53.874Z,103719.13
2023-01-21T19:51:22.566Z,103700.78
2023-01-21T19:53:50.853Z,103739.22
2023-01-21T19:56:23.937Z,103731.78
2023-01-21T19:58:52.386Z,103740.63
2023-01-21T20:01:22.131Z,103725.00
2023-01-21T20:03:59.610Z,103740.47
2023-01-21T20:06:31.767Z,103725.84
2023-01-21T20:09:01.955Z,103719.31
2023-01-21T20:11:33.538Z,103735.88
2023-01-21T20:14:07.790Z,103735.34
2023-01-21T20:16:46.568Z,103727.63
2023-01-21T20:19:17.699Z,103704.09
2023-01-21T20:22:00.394Z,103722.22
2023-01-21T20:24:34.393Z,103751.38
2023-01-21T20:27:28.072Z,103750.50
2023-01-21T20:30:14.760Z,103711.66
2023-01-21T20:32:45.602Z,103756.19
2023-01-21T20:35:16.199Z,103756.41
2023-01-21T20:37:49.291Z,103749.84
2023-01-21T20:40:21.058Z,103715.97
2023-01-21T20:42:59.595Z,103752.81
2023-01-21T20:45:32.034Z,103754.72
2023-01-21T20:48:04.916Z,103743.88
2023-01-21T20:50:35.557Z,103754.38
2023-01-21T20:53:05.933Z,103749.81
2023-01-21T20:55:34.053Z,103741.28
2023-01-21T20:58:02.558Z,103739.03
2023-01-21T21:00:35.244Z,103755.31
2023-01-21T21:03:05.472Z,103753.72
2023-01-21T21:05:34.581Z,103756.66
2023-01-21T21:08:03.743Z,103713.00
2023-01-21T21:10:37.596Z,103757.06
2023-01-21T21:13:06.415Z,103750.09
2023-01-21T21:15:36.749Z,103755.28
2023-01-21T21:18:08.505Z,103742.63
2023-01-21T21:20:39.466Z,103752.13
2023-01-21T21:23:08.737Z,103753.94
2023-01-21T21:25:42.506Z,103755.41
2023-01-21T21:28:11.292Z,103747.13
2023-01-21T21:30:41.556Z,103734.50
2023-01-21T21:33:23.407Z,103723.66
2023-01-21T21:35:52.200Z,103743.97
2023-01-21T21:38:26.656Z,103762.97
2023-01-21T21:40:55.221Z,103757.56
2023-01-21T21:43:36.037Z,103759.03
2023-01-21T21:46:27.669Z,103752.16
2023-01-21T21:48:57.569Z,103762.50
2023-01-21T21:51:26.334Z,103750.53
2023-01-21T21:53:54.721Z,103766.38
2023-01-21T21:56:24.908Z,103755.53
2023-01-21T21:58:53.713Z,103768.88
2023-01-21T22:01:24.278Z,103762.75
2023-01-21T22:03:53.140Z,103768.63
2023-01-21T22:06:23.814Z,103770.88
2023-01-21T22:08:55.060Z,103769.97
2023-01-21T22:11:24.520Z,103773.97
2023-01-21T22:13:53.904Z,103764.13
2023-01-21T22:16:24.260Z,103768.41
2023-01-21T22:18:53.079Z,103771.13
2023-01-21T22:21:24.457Z,103776.09
2023-01-21T22:23:53.377Z,103760.06
2023-01-21T22:26:24.571Z,103782.00
2023-01-21T22:28:53.162Z,103766.38
2023-01-21T22:31:23.658Z,103781.78
2023-01-21T22:33:52.741Z,103788.09
2023-01-21T22:36:24.488Z,103793.53
2023-01-21T22:38:53.326Z,103790.78
2023-01-21T22:41:22.947Z,103801.19
2023-01-21T22:43:52.167Z,103749.44
2023-01-21T22:46:23.521Z,103797.06
2023-01-21T22:48:52.040Z,103797.75
2023-01-21T22:51:21.509Z,103803.19
2023-01-21T22:53:51.339Z,103796.38
2023-01-21T22:56:25.390Z,103792.88
2023-01-21T22:59:00.236Z,103787.34
2023-01-21T23:01:31.514Z,103779.78
2023-01-21T23:04:01.675Z,103759.56
2023-01-21T23:06:30.407Z,103776.31
2023-01-21T23:09:00.148Z,103776.97
2023-01-21T23:11:31.084Z,103759.31
2023-01-21T23:13:59.510Z,103791.94
2023-01-21T23:16:27.638Z,103786.25
2023-01-21T23:18:55.976Z,103786.72
2023-01-21T23:21:24.213Z,103783.06
2023-01-21T23:23:52.344Z,103796.50
2023-01-21T23:26:23.881Z,103781.69
2023-01-21T23:28:56.180Z,103782.25
2023-01-21T23:31:25.831Z,103789.09
2023-01-21T23:33:56.370Z,103782.63
2023-01-21T23:36:25.037Z,103786.34
2023-01-21T23:38:53.491Z,103782.56
2023-01-21T23:41:23.456Z,103783.97
2023-01-21T23:43:51.828Z,103759.78
2023-01-21T23:46:20.899Z,103729.25
2023-01-21T23:48:49.768Z,103760.94
2023-01-21T23:51:19.089Z,103765.66
2023-01-21T23:53:48.591Z,103770.81
2023-01-21T23:56:18.814Z,103765.25
2023-01-21T23:58:48.727Z,103761.31
